createdAt,value
2023-03-27T00:01:21.823Z,2.70
2023-03-27T00:03:51.845Z,2.70
2023-03-27T00:06:22.082Z,2.60
2023-03-27T00:08:52.338Z,2.60
2023-03-27T00:11:24.858Z,2.60
2023-03-27T00:13:54.933Z,2.60
2023-03-27T00:16:26.889Z,2.60
2023-03-27T00:18:56.237Z,2.60
2023-03-27T00:21:25.974Z,2.60
2023-03-27T00:23:56.687Z,2.60
2023-03-27T00:26:26.807Z,2.70
2023-03-27T00:28:55.635Z,2.70
2023-03-27T00:31:25.065Z,2.70
2023-03-27T00:33:53.798Z,2.60
2023-03-27T00:36:22.379Z,2.60
2023-03-27T00:38:53.169Z,2.60
2023-03-27T00:41:22.231Z,2.60
2023-03-27T00:43:56.377Z,2.60
2023-03-27T00:46:35.936Z,2.60
2023-03-27T00:49:09.750Z,2.60
2023-03-27T00:51:39.595Z,2.60
2023-03-27T00:54:09.867Z,2.60
2023-03-27T00:56:38.980Z,2.60
2023-03-27T00:59:13.690Z,2.60
2023-03-27T01:01:43.615Z,2.50
2023-03-27T01:04:12.341Z,2.50
2023-03-27T01:06:42.211Z,2.50
2023-03-27T01:09:11.141Z,2.50
2023-03-27T01:12:02.393Z,2.40
2023-03-27T01:14:39.491Z,2.40
2023-03-27T01:17:22.576Z,2.30
2023-03-27T01:20:19.834Z,2.30
2023-03-27T01:23:58.719Z,2.30
2023-03-27T01:26:58.050Z,2.40
2023-03-27T01:30:02.825Z,2.30
2023-03-27T01:33:02.350Z,2.40
2023-03-27T01:36:01.935Z,2.50
2023-03-27T01:38:49.078Z,2.50
2023-03-27T01:41:26.141Z,2.50
2023-03-27T01:44:00.922Z,2.50
2023-03-27T01:46:36.352Z,2.50
2023-03-27T01:49:09.657Z,2.50
2023-03-27T01:51:40.634Z,2.50
2023-03-27T01:54:13.705Z,2.60
2023-03-27T01:56:53.497Z,2.60
2023-03-27T01:59:27.118Z,2.60
2023-03-27T02:02:01.886Z,2.60
2023-03-27T02:04:35.483Z,2.50
2023-03-27T02:07:08.938Z,2.50
2023-03-27T02:09:41.772Z,2.50
2023-03-27T02:12:16.655Z,2.40
2023-03-27T02:14:50.222Z,2.50
2023-03-27T02:17:20.774Z,2.50
2023-03-27T02:19:56.270Z,2.40
2023-03-27T02:22:39.218Z,2.40
2023-03-27T02:25:26.206Z,2.50
2023-03-27T02:28:10.964Z,2.50
2023-03-27T02:30:44.107Z,2.50
2023-03-27T02:33:19.735Z,2.40
2023-03-27T02:35:56.563Z,2.30
2023-03-27T02:38:34.352Z,2.10
2023-03-27T02:41:10.247Z,2.10
2023-03-27T02:43:47.776Z,2.10
2023-03-27T02:46:21.733Z,2.10
2023-03-27T02:48:54.955Z,2.00
2023-03-27T02:51:28.285Z,2.00
2023-03-27T02:54:01.180Z,2.00
2023-03-27T02:56:34.924Z,2.00
2023-03-27T02:59:08.766Z,2.00
2023-03-27T03:01:39.624Z,2.10
2023-03-27T03:04:13.114Z,2.10
2023-03-27T03:06:42.291Z,2.10
2023-03-27T03:09:15.007Z,2.00
2023-03-27T03:11:48.503Z,2.00
2023-03-27T03:14:20.796Z,2.00
2023-03-27T03:16:49.501Z,2.00
2023-03-27T03:19:18.172Z,2.10
2023-03-27T03:21:49.432Z,2.20
2023-03-27T03:24:19.113Z,2.30
2023-03-27T03:26:50.148Z,2.40
2023-03-27T03:29:20.451Z,2.40
2023-03-27T03:31:49.699Z,2.50
2023-03-27T03:34:22.514Z,2.50
2023-03-27T03:36:55.199Z,2.60
2023-03-27T03:39:24.040Z,2.90
2023-03-27T03:41:52.863Z,2.90
2023-03-27T03:44:22.822Z,2.70
2023-03-27T03:46:51.485Z,2.40
2023-03-27T03:49:20.191Z,2.20
2023-03-27T03:52:04.422Z,2.10
2023-03-27T03:54:34.055Z,1.90
2023-03-27T03:57:03.206Z,1.80
2023-03-27T03:59:33.965Z,1.70
2023-03-27T04:02:03.110Z,1.70
2023-03-27T04:04:32.090Z,1.70
2023-03-27T04:07:00.862Z,1.70
2023-03-27T04:09:29.512Z,1.70
2023-03-27T04:11:58.091Z,1.70
2023-03-27T04:14:26.678Z,1.70
2023-03-27T04:16:59.232Z,1.60
2023-03-27T04:19:28.337Z,1.50
2023-03-27T04:21:58.282Z,1.50
2023-03-27T04:24:26.927Z,1.40
2023-03-27T04:26:58.243Z,1.30
2023-03-27T04:29:30.234Z,1.20
2023-03-27T04:32:01.121Z,1.20
2023-03-27T04:34:30.350Z,1.20
2023-03-27T04:36:58.960Z,1.20
2023-03-27T04:39:27.980Z,1.20
2023-03-27T04:41:58.455Z,1.10
2023-03-27T04:44:27.085Z,1.10
2023-03-27T04:46:55.811Z,1.10
2023-03-27T04:49:25.894Z,1.10
2023-03-27T04:51:54.600Z,1.10
2023-03-27T04:54:24.202Z,1.10
2023-03-27T04:56:53.388Z,1.10
2023-03-27T04:59:22.510Z,1.10
2023-03-27T05:01:51.940Z,1.00
2023-03-27T05:04:20.545Z,1.10
2023-03-27T05:06:50.518Z,1.10
2023-03-27T05:09:19.091Z,1.10
2023-03-27T05:11:50.063Z,1.10
2023-03-27T05:14:18.850Z,1.20
2023-03-27T05:16:50.060Z,1.20
2023-03-27T05:19:19.590Z,1.30
2023-03-27T05:21:48.359Z,1.30
2023-03-27T05:24:18.443Z,1.40
2023-03-27T05:26:47.091Z,1.40
2023-03-27T05:29:16.793Z,1.40
2023-03-27T05:31:45.834Z,1.40
2023-03-27T05:34:14.482Z,1.30
2023-03-27T05:36:43.094Z,1.20
2023-03-27T05:39:11.736Z,1.20
2023-03-27T05:41:42.272Z,1.10
2023-03-27T05:44:10.824Z,1.10
2023-03-27T05:46:39.760Z,1.10
2023-03-27T05:49:08.948Z,1.10
2023-03-27T05:51:37.545Z,1.10
2023-03-27T05:54:06.229Z,1.00
2023-03-27T05:56:35.863Z,1.10
2023-03-27T05:59:05.851Z,1.00
2023-03-27T06:01:35.787Z,1.10
2023-03-27T06:04:05.752Z,1.10
2023-03-27T06:06:34.536Z,1.10
2023-03-27T06:09:04.718Z,1.10
2023-03-27T06:11:34.637Z,1.10
2023-03-27T06:14:04.148Z,1.10
2023-03-27T06:16:34.360Z,1.20
2023-03-27T06:19:03.003Z,1.40
2023-03-27T06:21:31.867Z,1.60
2023-03-27T06:24:00.880Z,1.80
2023-03-27T06:26:29.562Z,1.80
2023-03-27T06:28:58.354Z,1.90
2023-03-27T06:31:27.426Z,1.90
2023-03-27T06:33:58.210Z,1.90
2023-03-27T06:36:27.588Z,2.00
2023-03-27T06:38:56.413Z,2.00
2023-03-27T06:41:25.021Z,2.00
2023-03-27T06:43:53.587Z,2.00
2023-03-27T06:46:27.540Z,2.00
2023-03-27T06:49:02.397Z,2.00
2023-03-27T06:51:31.481Z,2.00
2023-03-27T06:54:00.478Z,2.00
2023-03-27T06:56:29.234Z,2.20
2023-03-27T06:58:58.083Z,2.40
2023-03-27T07:01:26.729Z,2.70
2023-03-27T07:03:55.530Z,3.00
2023-03-27T07:06:25.516Z,3.20
2023-03-27T07:08:54.247Z,3.10
2023-03-27T07:11:22.816Z,3.00
2023-03-27T07:13:51.388Z,3.00
2023-03-27T07:16:20.084Z,2.90
2023-03-27T07:18:48.742Z,2.90
2023-03-27T07:21:17.435Z,2.90
2023-03-27T07:23:47.387Z,3.00
2023-03-27T07:26:16.473Z,3.20
2023-03-27T07:28:45.181Z,3.30
2023-03-27T07:31:29.953Z,3.40
2023-03-27T07:34:02.177Z,3.50
2023-03-27T07:36:30.946Z,3.40
2023-03-27T07:39:01.481Z,3.50
2023-03-27T07:41:31.184Z,3.30
2023-03-27T07:44:00.613Z,3.30
2023-03-27T07:46:29.372Z,3.30
2023-03-27T07:48:58.057Z,3.40
2023-03-27T07:51:27.585Z,3.30
2023-03-27T07:53:58.736Z,3.30
2023-03-27T07:56:29.022Z,3.30
2023-03-27T07:58:57.646Z,3.30
2023-03-27T08:01:27.678Z,3.30
2023-03-27T08:03:57.242Z,3.40
2023-03-27T08:06:26.109Z,3.50
2023-03-27T08:08:54.705Z,3.60
2023-03-27T08:11:30.777Z,3.70
2023-03-27T08:14:04.114Z,3.80
2023-03-27T08:16:32.758Z,4.00
2023-03-27T08:19:03.300Z,4.20
2023-03-27T08:21:33.315Z,4.40
2023-03-27T08:24:04.724Z,4.60
2023-03-27T08:26:33.404Z,4.80
2023-03-27T08:29:03.788Z,5.00
2023-03-27T08:31:33.256Z,5.20
2023-03-27T08:34:02.340Z,5.40
2023-03-27T08:36:32.057Z,5.50
2023-03-27T08:39:02.622Z,5.80
2023-03-27T08:41:38.624Z,6.00
2023-03-27T08:44:14.035Z,5.60
2023-03-27T08:46:46.817Z,5.20
2023-03-27T08:49:19.201Z,4.80
2023-03-27T08:51:53.155Z,4.70
2023-03-27T08:54:25.147Z,4.50
2023-03-27T08:56:54.332Z,4.40
2023-03-27T08:59:27.639Z,4.50
2023-03-27T09:02:03.734Z,4.50
2023-03-27T09:04:40.498Z,4.50
2023-03-27T09:07:12.695Z,4.70
2023-03-27T09:09:55.499Z,5.00
2023-03-27T09:12:36.166Z,5.40
2023-03-27T09:15:13.225Z,5.60
2023-03-27T09:17:48.098Z,5.40
2023-03-27T09:20:20.437Z,5.00
2023-03-27T09:22:53.720Z,4.80
2023-03-27T09:25:28.431Z,4.80
2023-03-27T09:27:58.493Z,4.70
2023-03-27T09:30:31.614Z,4.30
2023-03-27T09:33:05.134Z,4.00
2023-03-27T09:35:35.621Z,3.70
2023-03-27T09:38:11.881Z,3.60
2023-03-27T09:40:48.597Z,3.40
2023-03-27T09:43:24.290Z,3.30
2023-03-27T09:45:55.915Z,3.30
2023-03-27T09:48:32.475Z,3.40
2023-03-27T09:51:02.440Z,3.80
2023-03-27T09:53:31.098Z,4.00
2023-03-27T09:56:03.310Z,4.10
2023-03-27T09:58:36.966Z,4.30
2023-03-27T10:01:15.578Z,4.60
2023-03-27T10:03:50.150Z,4.80
2023-03-27T10:06:28.300Z,5.10
2023-03-27T10:08:58.013Z,5.40
2023-03-27T10:11:29.496Z,5.50
2023-03-27T10:13:59.677Z,5.80
2023-03-27T10:16:31.044Z,6.00
2023-03-27T10:19:04.567Z,6.20
2023-03-27T10:21:35.556Z,6.60
2023-03-27T10:24:07.323Z,7.00
2023-03-27T10:26:38.434Z,7.10
2023-03-27T10:29:22.426Z,6.80
2023-03-27T10:31:54.822Z,6.30
2023-03-27T10:34:38.569Z,5.50
2023-03-27T10:37:22.062Z,5.40
2023-03-27T10:39:51.548Z,5.70
2023-03-27T10:42:22.813Z,5.90
2023-03-27T10:44:54.540Z,6.20
2023-03-27T10:47:27.469Z,6.60
2023-03-27T10:50:08.375Z,6.90
2023-03-27T10:52:45.748Z,7.40
2023-03-27T10:55:24.161Z,7.70
2023-03-27T10:57:56.544Z,8.00
2023-03-27T11:00:34.740Z,8.20
2023-03-27T11:03:13.180Z,8.00
2023-03-27T11:05:45.000Z,6.70
2023-03-27T11:08:21.646Z,4.70
2023-03-27T11:10:52.209Z,3.70
2023-03-27T11:13:24.140Z,3.30
2023-03-27T11:15:55.762Z,3.40
2023-03-27T11:18:29.555Z,3.40
2023-03-27T11:21:03.095Z,3.40
2023-03-27T11:23:38.519Z,3.40
2023-03-27T11:26:08.954Z,3.60
2023-03-27T11:28:43.417Z,3.90
2023-03-27T11:31:17.620Z,4.30
2023-03-27T11:33:53.186Z,4.70
2023-03-27T11:36:45.933Z,4.90
2023-03-27T11:39:20.975Z,5.10
2023-03-27T11:41:54.784Z,5.50
2023-03-27T11:44:24.728Z,5.70
2023-03-27T11:47:20.333Z,6.00
2023-03-27T11:50:19.870Z,6.40
2023-03-27T11:53:00.112Z,6.70
2023-03-27T11:55:36.414Z,7.00
2023-03-27T11:58:17.918Z,7.20
2023-03-27T12:00:56.180Z,7.40
2023-03-27T12:04:02.091Z,7.60
2023-03-27T12:06:35.479Z,7.80
2023-03-27T12:09:27.833Z,8.10
2023-03-27T12:12:07.596Z,8.30
2023-03-27T12:14:47.282Z,8.90
2023-03-27T12:17:32.282Z,9.20
2023-03-27T12:20:31.959Z,8.80
2023-03-27T12:23:14.294Z,8.30
2023-03-27T12:26:02.735Z,8.30
2023-03-27T12:28:44.757Z,8.20
2023-03-27T12:31:28.253Z,8.00
2023-03-27T12:34:02.570Z,7.80
2023-03-27T12:36:35.868Z,7.60
2023-03-27T12:39:13.759Z,7.90
2023-03-27T12:41:46.004Z,8.40
2023-03-27T12:44:18.272Z,8.60
2023-03-27T12:47:08.444Z,8.70
2023-03-27T12:49:48.049Z,8.40
2023-03-27T12:52:18.811Z,7.80
2023-03-27T12:55:11.534Z,7.60
2023-03-27T12:57:44.697Z,7.70
2023-03-27T13:00:22.564Z,8.20
2023-03-27T13:03:19.531Z,8.50
2023-03-27T13:06:06.538Z,8.50
2023-03-27T13:09:08.377Z,8.40
2023-03-27T13:11:50.461Z,8.40
2023-03-27T13:14:36.815Z,8.50
2023-03-27T13:17:25.814Z,8.70
2023-03-27T13:20:10.046Z,8.60
2023-03-27T13:22:55.030Z,8.60
2023-03-27T13:25:40.888Z,8.70
2023-03-27T13:28:37.138Z,8.90
2023-03-27T13:31:09.432Z,8.90
2023-03-27T13:33:45.323Z,8.90
2023-03-27T13:36:17.781Z,8.70
2023-03-27T13:39:09.848Z,9.00
2023-03-27T13:42:10.939Z,9.40
2023-03-27T13:44:50.085Z,9.20
2023-03-27T13:47:55.369Z,9.00
2023-03-27T13:50:41.961Z,9.10
2023-03-27T13:53:37.764Z,9.00
2023-03-27T13:56:39.092Z,8.90
2023-03-27T14:00:01.814Z,8.60
2023-03-27T14:02:50.329Z,8.20
2023-03-27T14:05:35.230Z,7.10
2023-03-27T14:08:23.650Z,5.50
2023-03-27T14:11:12.653Z,4.20
2023-03-27T14:14:02.820Z,3.80
2023-03-27T14:16:51.626Z,3.90
2023-03-27T14:20:10.489Z,3.80
2023-03-27T14:22:48.731Z,3.90
2023-03-27T14:25:20.355Z,4.10
2023-03-27T14:27:54.100Z,4.10
2023-03-27T14:30:26.237Z,4.10
2023-03-27T14:32:57.655Z,4.10
2023-03-27T14:35:34.104Z,4.00
2023-03-27T14:38:07.542Z,4.20
2023-03-27T14:40:39.418Z,4.40
2023-03-27T14:43:08.661Z,4.30
2023-03-27T14:45:40.298Z,4.30
2023-03-27T14:48:21.118Z,4.30
2023-03-27T14:50:53.455Z,4.40
2023-03-27T14:53:27.841Z,4.60
2023-03-27T14:55:57.639Z,5.00
2023-03-27T14:58:26.954Z,5.40
2023-03-27T15:01:00.065Z,5.90
2023-03-27T15:03:33.859Z,6.10
2023-03-27T15:06:04.706Z,6.30
2023-03-27T15:08:38.822Z,6.60
2023-03-27T15:11:12.463Z,6.70
2023-03-27T15:13:41.137Z,6.80
2023-03-27T15:16:11.969Z,6.90
2023-03-27T15:18:52.989Z,7.10
2023-03-27T15:21:34.801Z,7.30
2023-03-27T15:24:10.477Z,7.40
2023-03-27T15:26:39.421Z,7.50
2023-03-27T15:29:14.608Z,7.60
2023-03-27T15:31:44.482Z,7.70
2023-03-27T15:34:23.219Z,7.80
2023-03-27T15:37:00.225Z,8.10
2023-03-27T15:39:31.854Z,8.30
2023-03-27T15:42:06.774Z,8.50
2023-03-27T15:44:35.522Z,8.30
2023-03-27T15:47:04.740Z,8.00
2023-03-27T15:49:37.161Z,7.60
2023-03-27T15:52:30.757Z,7.30
2023-03-27T15:55:01.882Z,7.10
2023-03-27T15:57:30.589Z,7.10
2023-03-27T16:00:08.555Z,7.20
2023-03-27T16:02:37.843Z,7.30
2023-03-27T16:05:07.690Z,7.50
2023-03-27T16:07:46.479Z,7.50
2023-03-27T16:10:29.952Z,7.30
2023-03-27T16:13:02.558Z,6.90
2023-03-27T16:15:33.230Z,6.70
2023-03-27T16:18:04.253Z,6.60
2023-03-27T16:20:40.521Z,6.50
2023-03-27T16:23:09.375Z,6.60
2023-03-27T16:25:41.261Z,6.80
2023-03-27T16:28:11.230Z,6.90
2023-03-27T16:30:41.980Z,7.10
2023-03-27T16:33:16.717Z,7.10
2023-03-27T16:35:46.281Z,7.10
2023-03-27T16:38:15.691Z,7.10
2023-03-27T16:40:46.709Z,7.00
2023-03-27T16:43:15.551Z,7.10
2023-03-27T16:45:45.543Z,7.10
2023-03-27T16:48:14.702Z,7.00
2023-03-27T16:50:43.596Z,6.80
2023-03-27T16:53:12.382Z,6.70
2023-03-27T16:55:41.005Z,6.50
2023-03-27T16:58:11.876Z,6.50
2023-03-27T17:00:40.807Z,6.40
2023-03-27T17:03:09.605Z,6.40
2023-03-27T17:05:38.227Z,6.40
2023-03-27T17:08:07.505Z,6.30
2023-03-27T17:10:36.561Z,6.40
2023-03-27T17:13:05.362Z,5.80
2023-03-27T17:15:38.650Z,5.40
2023-03-27T17:18:07.802Z,5.40
2023-03-27T17:20:36.667Z,5.40
2023-03-27T17:23:05.300Z,5.40
2023-03-27T17:25:33.952Z,5.40
2023-03-27T17:28:02.681Z,5.30
2023-03-27T17:30:41.039Z,5.30
2023-03-27T17:33:14.154Z,5.30
2023-03-27T17:35:43.308Z,5.20
2023-03-27T17:38:11.981Z,5.20
2023-03-27T17:40:41.302Z,5.20
2023-03-27T17:43:10.605Z,5.10
2023-03-27T17:45:41.728Z,5.00
2023-03-27T17:48:12.520Z,5.00
2023-03-27T17:50:41.340Z,4.90
2023-03-27T17:53:09.944Z,4.90
2023-03-27T17:55:38.989Z,4.90
2023-03-27T17:58:10.097Z,4.80
2023-03-27T18:00:39.510Z,4.80
2023-03-27T18:03:08.905Z,4.70
2023-03-27T18:05:40.208Z,4.60
2023-03-27T18:08:11.269Z,4.60
2023-03-27T18:10:44.520Z,4.60
2023-03-27T18:13:13.293Z,4.50
2023-03-27T18:15:42.723Z,4.40
2023-03-27T18:18:11.660Z,4.40
2023-03-27T18:20:41.772Z,4.40
2023-03-27T18:23:10.415Z,4.30
2023-03-27T18:25:42.988Z,4.20
2023-03-27T18:28:11.987Z,4.20
2023-03-27T18:30:41.576Z,4.10
2023-03-27T18:33:11.293Z,4.00
2023-03-27T18:35:42.740Z,4.00
2023-03-27T18:38:12.226Z,4.00
2023-03-27T18:40:40.862Z,4.10
2023-03-27T18:43:10.231Z,4.00
2023-03-27T18:45:40.135Z,3.90
2023-03-27T18:48:09.811Z,3.80
2023-03-27T18:50:38.474Z,3.80
2023-03-27T18:53:08.449Z,3.80
2023-03-27T18:55:37.134Z,3.80
2023-03-27T18:58:06.484Z,3.90
2023-03-27T19:00:35.149Z,4.00
2023-03-27T19:03:04.256Z,4.00
2023-03-27T19:05:32.984Z,4.10
2023-03-27T19:08:01.784Z,4.00
2023-03-27T19:10:31.903Z,3.80
2023-03-27T19:13:01.905Z,3.60
2023-03-27T19:15:30.811Z,3.40
2023-03-27T19:17:59.689Z,3.20
2023-03-27T19:20:28.929Z,3.10
2023-03-27T19:22:57.577Z,3.00
2023-03-27T19:25:27.602Z,3.00
2023-03-27T19:27:57.672Z,2.90
2023-03-27T19:30:26.321Z,2.80
2023-03-27T19:32:55.288Z,2.80
2023-03-27T19:35:23.932Z,2.80
2023-03-27T19:37:52.645Z,2.80
2023-03-27T19:40:21.806Z,2.80
2023-03-27T19:42:50.519Z,2.80
2023-03-27T19:45:20.752Z,2.80
2023-03-27T19:47:49.424Z,2.90
2023-03-27T19:50:18.212Z,2.90
2023-03-27T19:52:57.247Z,2.90
2023-03-27T19:55:34.462Z,3.00
2023-03-27T19:58:03.066Z,2.90
2023-03-27T20:00:33.521Z,2.90
2023-03-27T20:03:02.942Z,3.00
2023-03-27T20:05:31.895Z,3.10
2023-03-27T20:08:08.305Z,3.10
2023-03-27T20:10:44.151Z,3.00
2023-03-27T20:13:13.488Z,2.90
2023-03-27T20:15:47.095Z,2.70
2023-03-27T20:18:16.527Z,2.60
2023-03-27T20:20:47.776Z,2.50
2023-03-27T20:23:17.599Z,2.40
2023-03-27T20:25:47.252Z,2.40
2023-03-27T20:28:15.955Z,2.40
2023-03-27T20:30:45.938Z,2.40
2023-03-27T20:33:14.599Z,2.30
2023-03-27T20:35:43.592Z,2.30
2023-03-27T20:38:13.490Z,2.30
2023-03-27T20:40:53.345Z,2.20
2023-03-27T20:43:22.910Z,2.10
2023-03-27T20:45:55.016Z,2.10
2023-03-27T20:48:23.649Z,2.10
2023-03-27T20:50:53.497Z,2.10
2023-03-27T20:53:26.209Z,2.00
2023-03-27T20:55:59.974Z,2.00
2023-03-27T20:58:33.965Z,2.00
2023-03-27T21:01:06.682Z,1.90
2023-03-27T21:03:37.157Z,1.90
2023-03-27T21:06:07.541Z,1.80
2023-03-27T21:08:36.210Z,1.80
2023-03-27T21:11:06.053Z,1.80
2023-03-27T21:13:34.719Z,1.80
2023-03-27T21:16:05.413Z,1.70
2023-03-27T21:18:34.043Z,1.70
2023-03-27T21:21:02.659Z,1.80
2023-03-27T21:23:31.601Z,1.70
2023-03-27T21:26:00.687Z,1.70
2023-03-27T21:28:29.541Z,1.80
2023-03-27T21:30:59.306Z,1.80
2023-03-27T21:33:31.162Z,1.80
2023-03-27T21:36:00.164Z,1.80
2023-03-27T21:38:29.593Z,1.80
2023-03-27T21:40:58.182Z,1.80
2023-03-27T21:43:26.859Z,1.70
2023-03-27T21:45:55.603Z,1.70
2023-03-27T21:48:24.269Z,1.70
2023-03-27T21:50:54.284Z,1.70
2023-03-27T21:53:22.825Z,1.70
2023-03-27T21:55:51.403Z,1.80
2023-03-27T21:58:20.119Z,1.70
2023-03-27T22:00:49.116Z,1.80
2023-03-27T22:03:17.832Z,1.70
2023-03-27T22:05:57.355Z,1.70
2023-03-27T22:08:38.198Z,1.80
2023-03-27T22:11:07.271Z,1.70
2023-03-27T22:13:37.069Z,1.70
2023-03-27T22:16:09.457Z,1.80
2023-03-27T22:18:38.155Z,1.90
2023-03-27T22:21:14.780Z,1.90
2023-03-27T22:23:45.102Z,1.80
2023-03-27T22:26:13.803Z,1.60
2023-03-27T22:28:42.423Z,1.50
2023-03-27T22:31:11.605Z,1.50
2023-03-27T22:33:41.138Z,1.60
2023-03-27T22:36:11.844Z,1.60
2023-03-27T22:38:40.691Z,1.50
2023-03-27T22:41:12.304Z,1.50
2023-03-27T22:43:41.642Z,1.40
2023-03-27T22:46:11.914Z,1.40
2023-03-27T22:48:41.016Z,1.40
2023-03-27T22:51:12.803Z,1.30
2023-03-27T22:53:42.030Z,1.30
2023-03-27T22:56:12.258Z,1.20
2023-03-27T22:58:40.897Z,1.20
2023-03-27T23:01:09.489Z,1.10
2023-03-27T23:03:38.753Z,1.10
2023-03-27T23:06:08.565Z,1.10
2023-03-27T23:08:37.210Z,1.10
2023-03-27T23:11:07.178Z,1.10
2023-03-27T23:13:37.409Z,1.10
2023-03-27T23:16:06.692Z,1.10
2023-03-27T23:18:35.772Z,1.00
2023-03-27T23:21:06.075Z,1.00
2023-03-27T23:23:36.447Z,1.00
2023-03-27T23:26:07.155Z,1.00
2023-03-27T23:28:39.396Z,1.00
2023-03-27T23:31:11.141Z,1.00
2023-03-27T23:33:41.476Z,1.00
2023-03-27T23:36:12.166Z,1.00
2023-03-27T23:38:41.975Z,0.90
2023-03-27T23:41:12.527Z,1.00
2023-03-27T23:43:43.108Z,1.00
2023-03-27T23:46:12.047Z,0.90
2023-03-27T23:48:42.216Z,1.00
2023-03-27T23:51:12.494Z,1.00
2023-03-27T23:53:41.325Z,0.90
2023-03-27T23:56:10.853Z,0.90
2023-03-27T23:58:39.776Z,1.00
